This is the latest recevied weather packets stored in our database for station/object KB9PVH-3. If no packets are shown the sender has not sent any weather packets the latest 10 day(s).
| Time | Temp. | Humidity | Pressure | Rain* | Wind** | Luminosity | Snow |
|---|---|---|---|---|---|---|---|
| 1777772250 | 11.11° C | 43% | 1015.4 hPa | 0 mm | - | - | - |
| 1777771200 | 11.67° C | 42% | 1015.2 hPa | 0 mm | - | - | - |
| 1777770150 | 11.67° C | 41% | 1015.3 hPa | 0 mm | - | - | - |
| 1777769104 | 12.22° C | 41% | 1015.1 hPa | 0 mm | - | - | - |
| 1777768054 | 13.33° C | 39% | 1015.1 hPa | 0 mm | - | - | - |
| 1777767000 | 14.44° C | 37% | 1015.4 hPa | 0 mm | - | - | - |
| 1777765950 | 14.44° C | 39% | 1015.4 hPa | 0 mm | - | - | - |
| 1777764902 | 14.44° C | 36% | 1015.6 hPa | 0 mm | - | - | - |
| 1777763854 | 16.11° C | 32% | 1015.6 hPa | 0 mm | - | - | - |
| 1777762803 | 15° C | 36% | 1015.8 hPa | 0 mm | - | - | - |
| 1777761754 | 16.11° C | 34% | 1015.7 hPa | 0 mm | - | - | - |
| 1777760700 | 15.56° C | 35% | 1016.1 hPa | 0 mm | - | - | - |
| 1777759651 | 15° C | 39% | 1016.3 hPa | 0 mm | - | - | - |
| 1777758600 | 14.44° C | 35% | 1016.3 hPa | 0 mm | - | - | - |
| 1777757549 | 15° C | 36% | 1016.5 hPa | 0 mm | - | - | - |
| 1777756500 | 16.11° C | 34% | 1016.5 hPa | 0 mm | - | - | - |
| 1777755453 | 16.11° C | 34% | 1016.8 hPa | 0 mm | - | - | - |
| 1777754399 | 15° C | 37% | 1017 hPa | 0 mm | - | - | - |
| 1777753350 | 15° C | 37% | 1017.2 hPa | 0 mm | - | - | - |
| 1777752299 | 15.56° C | 37% | 1017.4 hPa | 0 mm | - | - | - |
| 1777751249 | 14.44° C | 34% | 1017.8 hPa | 0 mm | - | - | - |
| 1777750201 | 14.44° C | 35% | 1018 hPa | 0 mm | - | - | - |
| 1777749153 | 13.33° C | 36% | 1018.4 hPa | 0 mm | - | - | - |
| 1777748104 | 13.33° C | 38% | 1018.7 hPa | 0 mm | - | - | - |
| 1777745999 | 13.33° C | 37% | 1018.9 hPa | 0 mm | - | - | - |
* Rain latest hour (hover to see other rain measurements)
** Current wind speed in m/s (hover to see current wind gust speed)